Portada
METAR-TAF:

METAR-TAF

Aeroports :

Vientiane, Laos

latitud: 17-57N, longitud: 102-34E, altitud: 171 m

Observació

L'informe es va fer fa 3 hores i 44 minuts, a les 12:00 UTC
Vent 10 kt del Sud
Temperatura 30°C
Humitat 62%
Pressió 1008 hPa
Visibilitat: 5000 m
Cel ennuvolat a una alçada de 2000 ft
Cel ennuvolat a una alçada de 4000 ft
boirina

METAR: VLVT 131200Z 18010KT 5000 BR BKN020 BKN040 30/22 Q1008 NOSIG

Hora: 22:44 (15:44 UTC)

Pronòstic

L'informe es va fer fa 4 hores i 44 minuts, a les 11:00 UTC
Pronòstic vàlid del 13 a les 12 UTC al 14 a les 12 UTC
Vent 8 kt del Sud-Oest
Visibilitat: 8000 m
Núvols disperses a una alçada de 2000 ft
Núvols disperses a una alçada de 20000 ft
Temporalment
l' 13 a les 14 UTC al 13 a les 20 UTC
Visibilitat: 4000 m
Escasses núvols a una alçada de 2000 ft
Núvols disperses a una alçada de 4000 ft
Cel ennuvolat a una alçada de 20000 ft
boirina

TAF: VLVT 131100Z 1312/1412 22008KT 8000 SCT020 SCT200 TEMPO 1314/1320 4000 BR FEW020 SCT040 BKN200

Observacions i pronòstics meteorològics de més de 4000 aeroports (METAR i TAF).

Les estacions disponibles són els punts grocs i vermells al mapa.

Posi el ratolí al punt desitjat per veure el nom de l'estació.

Feu clic per veure les observacions i els pronòstics meteorològics.

Per canviar el mapa: feu clic els botons verds amb una creu de color negre per apropar; al botó verd amb un guió per allunyar la imatge; o en les fletxes verdes per a mapes adjacents.


METAR-TAF: